Time;durP1;ratioP1;P1;durP2;ratioP2;P2;SDS_P1;SDS_P2;PMS_P1;PMS_P2;Temp;Humidity;BMP_temperature;BMP_pressure;BME280_temperature;BME280_humidity;BME280_pressure;Samples;Min_cycle;Max_cycle;Signal;HPM_P1;HPM_P2
2022/04/17 00:00:48;;;;;;;4.22;1.23;;;14.70;58.20;;;;;;6129410;23;20403;-80
2022/04/17 00:03:14;;;;;;;2.00;1.30;;;14.30;59.90;;;;;;6123732;23;20415;-80
2022/04/17 00:05:41;;;;;;;3.05;1.20;;;14.10;61.20;;;;;;6123770;23;21789;-81
2022/04/17 00:08:09;;;;;;;4.07;1.50;;;14.10;61.50;;;;;;6118687;23;20383;-80
2022/04/17 00:10:36;;;;;;;4.57;1.33;;;14.00;61.70;;;;;;6124446;23;20438;-80
2022/04/17 00:13:04;;;;;;;2.95;1.08;;;14.10;61.40;;;;;;6111351;23;20384;-80
2022/04/17 00:15:31;;;;;;;1.40;1.10;;;14.10;60.80;;;;;;6124601;23;20383;-80
2022/04/17 00:17:58;;;;;;;3.00;1.23;;;14.10;60.50;;;;;;6131436;23;20408;-80
2022/04/17 00:20:26;;;;;;;3.60;1.25;;;13.90;61.10;;;;;;6122962;23;20501;-81
2022/04/17 00:22:53;;;;;;;3.75;1.10;;;13.90;60.90;;;;;;6130148;23;20372;-80
2022/04/17 00:25:21;;;;;;;1.92;1.08;;;13.80;61.50;;;;;;6128449;23;20391;-80
2022/04/17 00:27:49;;;;;;;3.40;1.07;;;13.70;61.80;;;;;;6126707;23;20430;-80
2022/04/17 00:30:15;;;;;;;2.67;1.45;;;13.60;61.80;;;;;;6126841;23;20380;-80
2022/04/17 00:32:43;;;;;;;3.72;1.15;;;13.70;61.60;;;;;;6115011;23;20386;-80
2022/04/17 00:35:10;;;;;;;2.47;1.00;;;13.70;61.00;;;;;;6112466;23;20439;-79
2022/04/17 00:37:37;;;;;;;2.30;1.20;;;13.80;60.50;;;;;;6125331;23;20375;-80
2022/04/17 00:40:06;;;;;;;3.90;1.40;;;13.70;60.70;;;;;;6123391;23;20434;-80
2022/04/17 00:42:34;;;;;;;2.75;1.50;;;13.70;60.50;;;;;;6124557;23;20379;-80
2022/04/17 00:45:01;;;;;;;2.63;1.70;;;13.70;59.90;;;;;;6124894;23;20387;-80
2022/04/17 00:47:28;;;;;;;3.72;1.80;;;13.70;59.70;;;;;;6110049;23;20431;-80
2022/04/17 00:49:55;;;;;;;6.07;1.75;;;13.80;59.50;;;;;;6123142;23;20391;-79
2022/04/17 00:52:22;;;;;;;3.10;1.50;;;13.70;59.10;;;;;;6128479;23;20372;-79
2022/04/17 00:54:50;;;;;;;3.10;1.80;;;13.70;58.90;;;;;;6125342;23;20364;-80
2022/04/17 00:57:17;;;;;;;3.67;1.48;;;13.70;59.40;;;;;;6124553;23;20380;-79
2022/04/17 00:59:46;;;;;;;2.53;1.60;;;13.50;59.70;;;;;;6108839;23;20376;-81
2022/04/17 01:02:14;;;;;;;2.53;1.60;;;13.40;60.00;;;;;;6117381;23;20471;-80
2022/04/17 01:04:44;;;;;;;2.95;1.17;;;13.40;60.00;;;;;;6122106;23;20384;-80
2022/04/17 01:07:13;;;;;;;3.20;1.52;;;13.40;59.70;;;;;;6126674;23;20438;-80
2022/04/17 01:09:41;;;;;;;1.80;1.37;;;13.40;59.70;;;;;;6089105;23;20451;-80
2022/04/17 01:12:09;;;;;;;3.63;1.52;;;13.40;60.20;;;;;;6123577;23;20384;-80
2022/04/17 01:14:40;;;;;;;3.35;1.33;;;13.40;60.60;;;;;;6124868;23;20399;-79
2022/04/17 01:17:09;;;;;;;2.60;1.20;;;13.30;60.60;;;;;;6129321;23;20454;-79
2022/04/17 01:19:37;;;;;;;2.15;1.30;;;13.20;61.60;;;;;;6128660;23;20375;-80
2022/04/17 01:22:10;;;;;;;3.70;1.05;;;13.00;61.70;;;;;;6129174;23;20423;-79
2022/04/17 01:27:25;;;;;;;2.97;0.90;;;12.90;61.50;;;;;;6134499;23;20477;-79
2022/04/17 01:29:53;;;;;;;2.30;0.82;;;12.90;60.60;;;;;;6136584;23;20872;-80
2022/04/17 01:32:20;;;;;;;1.92;1.00;;;13.00;59.90;;;;;;6106437;23;20384;-80
2022/04/17 01:34:49;;;;;;;2.20;0.90;;;13.10;59.20;;;;;;6121513;23;20378;-80
2022/04/17 01:37:20;;;;;;;1.50;0.87;;;13.20;58.60;;;;;;6126429;23;20440;-80
2022/04/17 01:39:47;;;;;;;3.50;0.90;;;13.30;59.40;;;;;;6133486;23;20746;-79
2022/04/17 01:42:16;;;;;;;1.97;0.90;;;13.30;58.50;;;;;;6134052;23;20371;-81
2022/04/17 01:44:44;;;;;;;2.10;0.97;;;13.30;58.20;;;;;;6133055;23;20379;-79
2022/04/17 01:47:11;;;;;;;3.35;0.90;;;13.50;58.20;;;;;;6131060;23;20423;-80
2022/04/17 01:49:41;;;;;;;1.05;0.80;;;13.50;58.00;;;;;;6132587;23;20423;-80
2022/04/17 01:52:08;;;;;;;1.80;0.90;;;13.60;58.00;;;;;;6122705;23;20379;-80
2022/04/17 01:54:35;;;;;;;3.00;1.10;;;13.70;58.10;;;;;;6137522;23;20363;-80
2022/04/17 01:57:02;;;;;;;2.75;1.10;;;13.70;56.90;;;;;;6127030;23;20876;-80
2022/04/17 01:59:29;;;;;;;1.42;1.15;;;13.80;56.30;;;;;;6131054;23;20864;-81
2022/04/17 02:01:57;;;;;;;2.88;1.25;;;13.80;56.00;;;;;;6154894;23;20368;-79
2022/04/17 02:04:27;;;;;;;3.22;1.45;;;13.90;56.40;;;;;;6126763;23;20407;-80
2022/04/17 02:06:54;;;;;;;2.00;1.20;;;13.90;55.90;;;;;;6134560;23;20384;-80
2022/04/17 02:09:21;;;;;;;3.05;1.30;;;14.00;56.50;;;;;;6136089;23;20388;-80
2022/04/17 02:11:48;;;;;;;3.63;1.50;;;14.00;55.90;;;;;;6132124;23;20380;-80
2022/04/17 02:14:15;;;;;;;2.10;1.40;;;13.90;56.00;;;;;;6131926;23;20435;-80
2022/04/17 02:16:42;;;;;;;2.67;1.30;;;13.90;55.80;;;;;;6128941;23;20383;-79
2022/04/17 02:19:09;;;;;;;1.67;1.20;;;13.90;55.40;;;;;;6133756;23;20380;-80
2022/04/17 02:21:36;;;;;;;1.77;1.13;;;13.90;55.10;;;;;;6133904;23;20444;-79
2022/04/17 02:24:04;;;;;;;3.17;1.05;;;13.90;55.00;;;;;;6135187;23;20848;-80
2022/04/17 02:26:32;;;;;;;2.92;1.05;;;13.90;55.10;;;;;;6126225;23;20442;-80
2022/04/17 02:29:00;;;;;;;4.30;1.30;;;13.90;55.20;;;;;;6132881;23;20966;-80
2022/04/17 02:31:27;;;;;;;2.45;1.17;;;13.90;55.30;;;;;;6124545;23;20423;-80
2022/04/17 02:33:54;;;;;;;2.25;1.13;;;13.80;55.50;;;;;;6118656;23;20405;-79
2022/04/17 02:36:22;;;;;;;2.60;1.00;;;13.80;55.40;;;;;;6143266;23;20376;-80
2022/04/17 02:38:49;;;;;;;2.80;1.00;;;13.70;55.90;;;;;;6127339;23;20856;-80
2022/04/17 02:41:16;;;;;;;3.35;1.50;;;13.70;56.40;;;;;;6136612;23;20438;-80
2022/04/17 02:43:43;;;;;;;3.00;1.00;;;13.70;56.60;;;;;;6129794;23;20375;-79
2022/04/17 02:46:10;;;;;;;3.33;1.17;;;13.70;56.00;;;;;;6131918;23;20411;-80
2022/04/17 02:48:37;;;;;;;1.83;1.50;;;13.70;56.30;;;;;;6127886;23;20387;-79
2022/04/17 02:51:04;;;;;;;2.60;1.45;;;13.70;56.30;;;;;;6137665;23;20378;-80
2022/04/17 02:53:32;;;;;;;2.92;1.48;;;13.60;56.50;;;;;;6136015;23;20383;-80
2022/04/17 02:56:00;;;;;;;3.22;1.80;;;13.60;56.50;;;;;;6130349;23;20364;-81
2022/04/17 02:58:28;;;;;;;3.58;1.58;;;13.60;56.70;;;;;;6136436;23;20391;-81
2022/04/17 03:06:26;;;;;;;2.55;1.58;;;13.60;56.80;;;;;;6131666;23;20841;-80
2022/04/17 03:08:53;;;;;;;1.88;1.40;;;13.60;56.80;;;;;;6130101;23;20405;-80
2022/04/17 03:11:20;;;;;;;1.65;1.00;;;13.60;56.80;;;;;;6135928;23;20376;-79
2022/04/17 03:13:48;;;;;;;2.78;1.20;;;13.60;56.50;;;;;;6127557;23;20864;-80
2022/04/17 03:16:15;;;;;;;3.28;1.27;;;13.60;56.90;;;;;;6126191;23;20375;-80
2022/04/17 03:18:43;;;;;;;2.33;1.20;;;13.70;56.90;;;;;;6128916;23;20383;-80
2022/04/17 03:21:10;;;;;;;1.77;1.02;;;13.70;56.70;;;;;;6125399;23;20379;-79
2022/04/17 03:23:37;;;;;;;3.50;1.30;;;13.70;56.70;;;;;;6124400;23;20379;-79
2022/04/17 03:26:04;;;;;;;3.65;1.02;;;13.60;56.40;;;;;;6137447;23;20738;-79
2022/04/17 03:28:31;;;;;;;1.80;1.13;;;13.50;56.40;;;;;;6130261;23;20383;-79
2022/04/17 03:30:58;;;;;;;4.25;1.50;;;13.50;56.70;;;;;;6135503;23;20434;-79
2022/04/17 03:33:28;;;;;;;3.07;1.87;;;13.50;56.70;;;;;;6141059;23;20379;-79
2022/04/17 03:35:56;;;;;;;2.53;1.80;;;13.40;56.80;;;;;;6138518;23;20434;-80
2022/04/17 03:38:23;;;;;;;2.30;1.60;;;13.40;57.30;;;;;;6129013;23;20407;-80
2022/04/17 03:40:50;;;;;;;2.58;1.83;;;13.30;57.30;;;;;;6126895;23;20372;-81
2022/04/17 03:43:17;;;;;;;3.10;2.25;;;13.30;57.40;;;;;;6126874;23;20380;-80
2022/04/17 03:45:47;;;;;;;3.30;2.00;;;13.20;57.70;;;;;;6138461;23;20462;-79
2022/04/17 03:48:17;;;;;;;3.92;2.17;;;13.10;58.00;;;;;;6127296;23;20378;-80
2022/04/17 03:50:45;;;;;;;3.90;2.40;;;13.10;58.10;;;;;;6125822;23;20864;-80
2022/04/17 03:53:12;;;;;;;4.53;2.40;;;13.00;58.10;;;;;;6122594;23;20379;-80
2022/04/17 03:55:39;;;;;;;3.95;2.00;;;13.00;57.90;;;;;;6134014;23;20383;-80
2022/04/17 03:58:06;;;;;;;3.00;2.25;;;13.00;58.10;;;;;;6128369;23;20374;-79
2022/04/17 04:00:33;;;;;;;2.70;2.40;;;13.00;58.30;;;;;;6137677;23;20407;-80
2022/04/17 04:03:03;;;;;;;3.83;2.03;;;12.90;58.60;;;;;;6125233;23;20381;-80
2022/04/17 04:05:33;;;;;;;4.05;2.17;;;12.90;58.80;;;;;;6127468;23;20380;-80
2022/04/17 04:08:01;;;;;;;4.00;2.30;;;12.90;59.10;;;;;;6125394;23;20898;-80
2022/04/17 04:10:28;;;;;;;2.78;1.73;;;12.80;59.40;;;;;;6131974;23;20435;-80
2022/04/17 04:12:56;;;;;;;3.47;2.30;;;12.80;59.40;;;;;;6128917;23;20384;-79
2022/04/17 04:15:23;;;;;;;3.53;2.03;;;12.80;59.10;;;;;;6120201;23;20385;-80
2022/04/17 04:17:50;;;;;;;4.38;2.08;;;12.80;59.30;;;;;;6121466;23;20383;-80
2022/04/17 04:20:18;;;;;;;4.60;1.83;;;12.70;59.50;;;;;;6107580;23;20380;-79
2022/04/17 04:22:45;;;;;;;4.07;1.80;;;12.60;59.70;;;;;;6127790;23;20391;-80
2022/04/17 04:25:12;;;;;;;4.10;1.73;;;12.60;59.30;;;;;;6127596;23;20836;-80
2022/04/17 04:30:26;;;;;;;1.60;1.20;;;12.50;57.80;;;;;;6112672;23;20406;-80
2022/04/17 04:32:56;;;;;;;1.95;1.30;;;12.40;58.40;;;;;;6125490;23;20380;-80
2022/04/17 04:35:26;;;;;;;1.70;1.10;;;12.40;58.40;;;;;;6129397;23;20817;-80
2022/04/17 04:37:54;;;;;;;2.50;1.10;;;12.40;58.40;;;;;;6127590;23;20376;-80
2022/04/17 04:40:21;;;;;;;4.22;1.00;;;12.30;58.10;;;;;;6117708;23;20371;-80
2022/04/17 04:42:58;;;;;;;3.25;0.95;;;12.30;57.30;;;;;;6126622;23;20375;-80
2022/04/17 04:48:11;;;;;;;1.90;1.00;;;12.30;57.00;;;;;;6126489;23;20753;-80
2022/04/17 04:50:38;;;;;;;5.93;1.00;;;12.20;56.80;;;;;;6127936;23;20376;-80
2022/04/17 04:53:06;;;;;;;1.30;0.70;;;12.20;57.20;;;;;;6124599;23;20442;-80
2022/04/17 04:55:32;;;;;;;3.10;0.73;;;12.10;56.80;;;;;;6122060;23;20372;-80
2022/04/17 04:58:01;;;;;;;2.17;0.60;;;12.20;57.00;;;;;;6109418;23;20375;-80
2022/04/17 05:00:28;;;;;;;2.22;0.60;;;12.20;57.00;;;;;;6128891;23;20414;-80
2022/04/17 05:02:55;;;;;;;1.60;0.80;;;12.20;56.70;;;;;;6157744;23;20399;-80
2022/04/17 05:05:22;;;;;;;1.37;0.50;;;12.10;56.90;;;;;;6118772;23;20933;-80
2022/04/17 05:07:49;;;;;;;3.10;0.60;;;12.10;56.40;;;;;;6118847;23;20394;-80
2022/04/17 05:10:16;;;;;;;0.90;0.60;;;12.20;56.00;;;;;;6133383;23;20384;-80
2022/04/17 05:12:43;;;;;;;1.00;0.60;;;12.30;56.40;;;;;;6124942;23;20375;-80
2022/04/17 05:15:11;;;;;;;0.98;0.50;;;12.30;56.20;;;;;;6127532;23;20372;-80
2022/04/17 05:17:38;;;;;;;2.50;0.63;;;12.30;55.50;;;;;;6130905;23;20378;-80
2022/04/17 05:20:05;;;;;;;1.02;0.60;;;12.30;55.40;;;;;;6120338;23;20409;-79
2022/04/17 05:22:33;;;;;;;1.80;0.70;;;12.40;55.70;;;;;;6122651;23;20383;-80
2022/04/17 05:25:00;;;;;;;2.55;0.68;;;12.40;55.40;;;;;;6128393;23;20376;-81
2022/04/17 05:27:27;;;;;;;0.75;0.60;;;12.40;55.70;;;;;;6127919;23;20383;-80
2022/04/17 05:29:55;;;;;;;1.92;0.60;;;12.50;55.40;;;;;;6129823;23;20383;-79
2022/04/17 05:32:21;;;;;;;0.90;0.55;;;12.40;55.50;;;;;;6141671;23;20374;-80
2022/04/17 05:34:49;;;;;;;1.88;0.60;;;12.40;55.50;;;;;;6128070;23;20391;-80
2022/04/17 05:37:16;;;;;;;1.85;0.65;;;12.40;55.00;;;;;;6129895;23;20892;-80
2022/04/17 05:39:43;;;;;;;2.53;0.80;;;12.40;55.60;;;;;;6132402;23;20439;-79
2022/04/17 05:42:12;;;;;;;1.48;0.70;;;12.40;55.70;;;;;;6116746;23;20752;-79
2022/04/17 05:44:45;;;;;;;0.80;0.60;;;12.50;54.90;;;;;;6124764;23;20390;-80
2022/04/17 05:47:13;;;;;;;1.10;0.52;;;12.40;55.80;;;;;;6129783;23;20384;-80
2022/04/17 05:49:40;;;;;;;2.47;0.80;;;12.40;55.30;;;;;;6132981;23;20464;-80
2022/04/17 05:52:07;;;;;;;1.03;0.47;;;12.50;54.70;;;;;;6127516;23;20417;-79
2022/04/17 05:54:34;;;;;;;1.60;0.60;;;12.60;54.30;;;;;;6125304;23;20392;-80
2022/04/17 05:57:02;;;;;;;1.30;0.50;;;12.50;53.90;;;;;;6130144;23;20388;-80
2022/04/17 05:59:29;;;;;;;1.75;0.75;;;12.50;54.30;;;;;;6133466;23;20379;-80
2022/04/17 06:01:56;;;;;;;2.13;0.50;;;12.50;54.30;;;;;;6125570;23;20371;-81
2022/04/17 06:04:23;;;;;;;1.95;0.68;;;12.40;54.00;;;;;;6132486;23;20390;-80
2022/04/17 06:06:49;;;;;;;1.50;0.47;;;12.40;54.40;;;;;;6127426;23;20380;-80
2022/04/17 06:09:16;;;;;;;1.10;0.50;;;12.40;54.20;;;;;;6127958;23;20380;-80
2022/04/17 06:11:43;;;;;;;0.73;0.40;;;12.30;53.30;;;;;;6125291;23;20375;-80
2022/04/17 06:14:11;;;;;;;0.93;0.45;;;12.30;54.20;;;;;;6131976;23;20379;-80
2022/04/17 06:16:39;;;;;;;1.90;0.50;;;12.30;54.10;;;;;;6132484;23;20383;-80
2022/04/17 06:19:09;;;;;;;1.23;0.40;;;12.30;54.50;;;;;;6126197;23;20384;-79
2022/04/17 06:21:39;;;;;;;1.45;0.40;;;12.40;54.30;;;;;;6128331;23;20908;-80
2022/04/17 06:24:06;;;;;;;0.93;0.47;;;12.30;53.60;;;;;;6127221;23;20891;-80
2022/04/17 06:26:33;;;;;;;1.17;0.50;;;12.30;53.70;;;;;;6127913;23;20379;-80
2022/04/17 06:29:05;;;;;;;2.70;0.40;;;12.40;53.80;;;;;;6131146;23;20708;-81
2022/04/17 06:31:33;;;;;;;1.25;0.40;;;12.40;53.70;;;;;;6130180;23;20868;-79
2022/04/17 06:34:00;;;;;;;1.70;0.52;;;12.40;53.60;;;;;;6131495;23;20383;-80
2022/04/17 06:36:27;;;;;;;1.73;0.50;;;12.40;52.90;;;;;;6130759;23;20442;-80
2022/04/17 06:38:55;;;;;;;1.85;0.40;;;12.30;52.20;;;;;;6129476;23;20375;-80
2022/04/17 06:41:21;;;;;;;1.50;0.60;;;12.30;53.00;;;;;;6128312;23;20443;-79
2022/04/17 06:43:50;;;;;;;1.10;0.50;;;12.30;52.40;;;;;;6123078;23;20467;-80
2022/04/17 06:46:17;;;;;;;0.85;0.40;;;12.40;53.20;;;;;;6127483;23;20390;-81
2022/04/17 06:48:44;;;;;;;1.50;0.50;;;12.40;53.30;;;;;;6131932;23;20454;-80
2022/04/17 06:51:11;;;;;;;2.10;0.40;;;12.50;53.00;;;;;;6125445;23;20451;-80
2022/04/17 06:53:43;;;;;;;4.10;0.50;;;12.60;52.60;;;;;;6127442;23;20404;-79
2022/04/17 06:56:12;;;;;;;1.45;0.45;;;12.70;52.70;;;;;;6123119;23;20384;-80
2022/04/17 06:58:39;;;;;;;1.35;0.57;;;12.70;53.10;;;;;;6120608;23;20382;-81
2022/04/17 07:01:06;;;;;;;1.60;0.52;;;12.70;53.50;;;;;;6125440;23;20375;-80
2022/04/17 07:03:33;;;;;;;2.40;0.50;;;12.70;54.20;;;;;;6158488;23;20384;-80
2022/04/17 07:06:00;;;;;;;1.08;0.70;;;12.90;53.70;;;;;;6132457;23;20376;-80
2022/04/17 07:08:28;;;;;;;1.58;0.80;;;12.80;53.60;;;;;;6130381;23;20788;-81
2022/04/17 07:10:55;;;;;;;1.30;0.50;;;12.70;53.90;;;;;;6127844;23;20376;-80
2022/04/17 07:13:24;;;;;;;4.45;3.58;;;12.80;54.10;;;;;;6123199;23;20915;-80
2022/04/17 07:15:51;;;;;;;2.08;0.70;;;12.70;54.10;;;;;;6128813;23;20384;-80
2022/04/17 07:18:18;;;;;;;1.20;0.85;;;12.70;54.00;;;;;;6131697;23;20404;-80
2022/04/17 07:20:46;;;;;;;3.35;2.40;;;12.80;53.50;;;;;;6130859;23;20872;-80
2022/04/17 07:23:13;;;;;;;3.00;0.90;;;12.70;53.00;;;;;;6130766;23;20411;-80
2022/04/17 07:25:41;;;;;;;2.80;0.80;;;12.50;52.70;;;;;;6123941;23;20765;-81
2022/04/17 07:28:12;;;;;;;2.58;0.93;;;12.40;51.80;;;;;;6132393;23;20386;-79
2022/04/17 07:30:42;;;;;;;3.10;0.70;;;12.30;52.10;;;;;;6125321;23;20388;-80
2022/04/17 07:33:09;;;;;;;2.55;0.85;;;12.30;52.20;;;;;;6133233;23;20860;-79
2022/04/17 07:35:39;;;;;;;2.72;1.20;;;12.30;50.30;;;;;;6124273;23;20443;-80
2022/04/17 07:38:07;;;;;;;2.65;0.82;;;12.50;51.30;;;;;;6121902;23;20363;-81
2022/04/17 07:40:35;;;;;;;3.33;0.80;;;12.60;50.80;;;;;;6122949;23;20380;-80
2022/04/17 07:43:04;;;;;;;3.78;1.00;;;12.70;50.00;;;;;;6122717;23;20378;-79
2022/04/17 07:45:32;;;;;;;3.25;0.80;;;12.70;48.80;;;;;;6118521;23;20442;-79
2022/04/17 07:47:59;;;;;;;2.53;0.70;;;12.60;49.60;;;;;;6120946;23;20419;-81
2022/04/17 07:50:27;;;;;;;3.67;0.73;;;12.60;49.80;;;;;;6124427;23;20687;-79
2022/04/17 07:52:54;;;;;;;4.23;0.80;;;12.60;50.30;;;;;;6122348;23;20772;-80
2022/04/17 07:55:32;;;;;;;3.53;0.90;;;12.60;48.70;;;;;;6125319;23;20430;-80
2022/04/17 08:00:28;;;;;;;3.85;0.85;;;12.80;49.30;;;;;;6125233;23;20380;-81
2022/04/17 08:06:05;;;;;;;3.30;0.70;;;12.90;48.10;;;;;;6125452;23;20375;-80
2022/04/17 08:08:33;;;;;;;6.13;1.00;;;13.10;47.90;;;;;;6092972;23;20387;-79
2022/04/17 08:11:00;;;;;;;2.92;0.82;;;13.20;48.20;;;;;;6122936;23;20409;-81
2022/04/17 08:13:27;;;;;;;2.40;0.80;;;13.20;47.80;;;;;;6120892;23;20566;-80
2022/04/17 08:16:04;;;;;;;3.42;0.80;;;13.40;48.10;;;;;;6146590;23;20379;-81
2022/04/17 08:18:33;;;;;;;2.28;0.80;;;13.50;47.90;;;;;;6114683;23;20695;-81
2022/04/17 08:21:05;;;;;;;2.33;0.80;;;13.50;45.60;;;;;;6125432;23;20383;-81
2022/04/17 08:23:33;;;;;;;3.10;0.70;;;13.60;47.60;;;;;;6120928;23;20398;-79
2022/04/17 08:26:01;;;;;;;2.17;0.90;;;13.70;47.70;;;;;;6112950;23;20407;-80
2022/04/17 08:28:28;;;;;;;2.30;0.80;;;13.80;46.80;;;;;;6111974;23;20384;-80
2022/04/17 08:30:56;;;;;;;2.63;1.00;;;13.90;46.20;;;;;;6126044;23;20376;-80
2022/04/17 08:33:26;;;;;;;3.67;0.88;;;14.00;45.80;;;;;;6121695;23;20442;-80
2022/04/17 08:35:59;;;;;;;2.67;0.90;;;14.10;45.60;;;;;;6122764;23;20380;-81
2022/04/17 08:38:26;;;;;;;3.25;1.15;;;14.00;45.50;;;;;;6122972;23;20895;-80
2022/04/17 08:40:56;;;;;;;3.08;0.88;;;14.20;46.30;;;;;;6123838;23;20376;-81
2022/04/17 08:43:27;;;;;;;4.80;1.10;;;14.30;45.50;;;;;;6100361;23;20380;-80
2022/04/17 08:45:54;;;;;;;2.97;1.10;;;14.30;46.00;;;;;;6124980;23;20376;-80
2022/04/17 08:48:22;;;;;;;2.80;1.02;;;14.50;45.50;;;;;;6123924;23;20388;-80
2022/04/17 08:50:55;;;;;;;3.70;0.95;;;14.50;45.30;;;;;;6125709;23;20970;-80
2022/04/17 08:53:24;;;;;;;4.13;0.90;;;14.50;45.00;;;;;;6125853;23;20380;-80
2022/04/17 08:55:58;;;;;;;3.60;1.10;;;14.40;44.80;;;;;;6123256;23;20388;-80
2022/04/17 08:58:31;;;;;;;4.32;1.10;;;14.10;44.40;;;;;;6123449;23;20386;-80
2022/04/17 09:00:58;;;;;;;2.75;1.00;;;14.20;46.40;;;;;;6122558;23;21229;-78
2022/04/17 09:03:25;;;;;;;2.97;1.20;;;14.40;46.90;;;;;;6125311;23;20380;-82
2022/04/17 09:05:53;;;;;;;2.72;0.98;;;14.70;45.50;;;;;;6124967;23;20375;-79
2022/04/17 09:08:21;;;;;;;3.37;1.57;;;14.80;43.70;;;;;;6122506;23;20380;-80
2022/04/17 09:10:58;;;;;;;4.00;1.13;;;14.50;43.90;;;;;;6121826;23;20825;-81
2022/04/17 09:13:28;;;;;;;3.85;1.10;;;14.50;45.50;;;;;;6124324;23;20712;-81
2022/04/17 09:15:55;;;;;;;3.30;1.20;;;14.90;45.70;;;;;;6123104;23;20460;-79
2022/04/17 09:18:22;;;;;;;2.97;1.20;;;15.10;44.80;;;;;;6128443;23;20380;-80
2022/04/17 09:20:49;;;;;;;3.78;1.17;;;15.30;42.70;;;;;;6128368;23;20372;-80
2022/04/17 09:23:33;;;;;;;5.68;1.38;;;15.70;42.70;;;;;;6122698;23;20379;-80
2022/04/17 09:26:00;;;;;;;4.35;1.13;;;15.60;42.60;;;;;;6118765;23;20430;-80
2022/04/17 09:28:33;;;;;;;4.50;1.40;;;15.70;43.80;;;;;;6128662;23;20391;-80
2022/04/17 09:31:01;;;;;;;2.03;0.93;;;15.30;42.20;;;;;;6131498;23;20364;-80
2022/04/17 09:33:42;;;;;;;2.83;1.20;;;15.50;42.90;;;;;;6130952;23;20411;-79
2022/04/17 09:36:09;;;;;;;4.30;1.33;;;15.70;42.70;;;;;;6128532;23;20678;-80
2022/04/17 09:38:40;;;;;;;3.50;1.40;;;15.80;43.40;;;;;;6136192;23;20398;-80
2022/04/17 09:41:13;;;;;;;3.77;1.50;;;15.70;40.90;;;;;;6135248;23;20422;-80
2022/04/17 09:43:43;;;;;;;5.63;1.20;;;15.20;42.90;;;;;;6129103;23;20392;-79
2022/04/17 09:46:13;;;;;;;4.20;1.27;;;15.30;41.90;;;;;;6132149;23;20376;-80
2022/04/17 09:49:07;;;;;;;3.40;1.40;;;15.50;43.60;;;;;;6151031;23;20396;-81
2022/04/17 09:51:34;;;;;;;6.00;1.40;;;16.10;42.60;;;;;;6131029;23;20380;-80
2022/04/17 09:54:05;;;;;;;4.43;1.57;;;16.20;42.50;;;;;;6137290;23;20415;-80
2022/04/17 09:56:39;;;;;;;4.35;1.23;;;16.20;42.70;;;;;;6134525;23;20391;-81
2022/04/17 09:59:18;;;;;;;3.00;1.58;;;16.10;41.40;;;;;;6119794;23;20362;-81
2022/04/17 10:01:50;;;;;;;2.80;1.30;;;16.20;42.20;;;;;;6132815;23;20446;-81
2022/04/17 10:04:21;;;;;;;4.13;1.50;;;16.50;42.30;;;;;;6129904;23;20445;-81
2022/04/17 10:06:58;;;;;;;6.83;3.37;;;16.70;42.20;;;;;;6138976;23;20380;-81
2022/04/17 10:09:26;;;;;;;3.80;1.85;;;15.80;42.60;;;;;;6120670;23;20377;-79
2022/04/17 10:12:01;;;;;;;4.28;1.25;;;16.20;42.40;;;;;;6115615;23;20391;-80
2022/04/17 10:14:29;;;;;;;5.60;1.58;;;16.30;41.60;;;;;;6121122;23;21192;-80
2022/04/17 10:16:58;;;;;;;4.03;1.80;;;16.90;42.90;;;;;;6126309;23;20449;-79
2022/04/17 10:19:33;;;;;;;3.45;1.30;;;16.50;40.50;;;;;;6116240;23;20390;-80
2022/04/17 10:22:03;;;;;;;5.40;1.27;;;16.30;41.40;;;;;;6125217;23;20384;-79
2022/04/17 10:24:35;;;;;;;4.55;1.27;;;16.30;40.50;;;;;;6127515;23;20712;-79
2022/04/17 10:27:13;;;;;;;3.22;1.52;;;16.20;44.00;;;;;;6129625;23;20375;-80
2022/04/17 10:29:47;;;;;;;5.10;2.40;;;16.40;41.20;;;;;;6145832;23;20464;-79
2022/04/17 10:32:49;;;;;;;3.65;1.67;;;16.50;43.30;;;;;;6134179;23;20404;-80
2022/04/17 10:35:45;;;;;;;3.95;1.55;;;16.50;42.50;;;;;;6050940;23;20372;-79
2022/04/17 10:38:29;;;;;;;4.28;1.60;;;16.80;43.60;;;;;;6122836;23;20372;-79
2022/04/17 10:41:01;;;;;;;4.67;1.40;;;16.80;39.80;;;;;;6124450;23;20384;-79
2022/04/17 10:44:00;;;;;;;2.77;1.40;;;17.10;41.80;;;;;;6130058;23;20380;-81
2022/04/17 10:46:27;;;;;;;3.28;1.50;;;17.00;40.50;;;;;;6102342;23;20375;-78
2022/04/17 10:49:01;;;;;;;5.50;1.80;;;16.70;41.60;;;;;;6135988;23;20386;-79
2022/04/17 10:51:30;;;;;;;5.53;2.10;;;16.80;41.70;;;;;;6127398;23;21087;-79
2022/04/17 10:54:19;;;;;;;5.40;2.33;;;16.80;42.30;;;;;;6136432;23;20386;-80
2022/04/17 10:56:55;;;;;;;2.50;1.10;;;17.30;42.40;;;;;;6153515;23;20374;-78
2022/04/17 10:59:33;;;;;;;4.28;1.50;;;17.50;39.80;;;;;;6120424;23;20864;-79
2022/04/17 11:02:06;;;;;;;4.18;1.60;;;17.50;41.40;;;;;;6122121;23;20375;-79
2022/04/17 11:04:54;;;;;;;4.70;2.05;;;17.70;39.10;;;;;;6134100;23;20415;-79
2022/04/17 11:07:29;;;;;;;2.63;1.33;;;16.80;39.60;;;;;;6153606;23;20628;-80
2022/04/17 11:10:14;;;;;;;5.00;1.90;;;16.90;41.10;;;;;;6116522;23;20387;-80
2022/04/17 11:12:53;;;;;;;5.22;1.40;;;17.10;41.40;;;;;;6151005;23;20392;-79
2022/04/17 11:15:23;;;;;;;3.80;1.50;;;17.50;40.00;;;;;;6136450;23;20938;-79
2022/04/17 11:17:58;;;;;;;2.17;1.40;;;17.60;37.60;;;;;;6113433;23;20453;-79
2022/04/17 11:20:26;;;;;;;4.20;1.45;;;17.80;38.60;;;;;;6118427;23;20842;-79
2022/04/17 11:22:53;;;;;;;4.05;1.70;;;18.00;39.00;;;;;;6116035;23;20430;-78
2022/04/17 11:25:20;;;;;;;2.35;1.45;;;17.70;38.10;;;;;;6123234;23;20376;-78
2022/04/17 11:27:48;;;;;;;4.25;1.33;;;17.80;39.10;;;;;;6114639;23;20387;-78
2022/04/17 11:30:36;;;;;;;5.00;1.52;;;18.00;40.20;;;;;;6124347;23;20480;-79
2022/04/17 11:33:04;;;;;;;3.90;1.60;;;18.00;38.40;;;;;;6121702;23;20446;-78
2022/04/17 11:35:31;;;;;;;2.67;1.40;;;17.50;37.40;;;;;;6101096;23;20383;-79
2022/04/17 11:38:08;;;;;;;4.88;1.80;;;17.70;38.20;;;;;;6123878;23;20407;-79
2022/04/17 11:40:38;;;;;;;3.55;1.30;;;18.10;37.20;;;;;;6113264;23;20444;-79
2022/04/17 11:43:10;;;;;;;6.43;1.60;;;18.30;37.40;;;;;;6126178;23;20409;-82
2022/04/17 11:45:39;;;;;;;3.97;1.73;;;18.20;38.20;;;;;;6136566;23;21257;-79
2022/04/17 11:48:11;;;;;;;3.88;1.40;;;18.00;38.00;;;;;;6125753;23;20400;-80
2022/04/17 11:50:39;;;;;;;3.90;1.80;;;17.90;38.90;;;;;;6125447;23;20375;-79
2022/04/17 11:53:13;;;;;;;3.92;1.58;;;18.00;37.90;;;;;;6130189;23;20382;-79
2022/04/17 11:55:43;;;;;;;3.67;1.52;;;18.30;38.00;;;;;;6123185;23;20395;-79
2022/04/17 11:58:31;;;;;;;4.10;1.55;;;18.90;36.60;;;;;;6114763;23;20382;-79
2022/04/17 12:01:05;;;;;;;3.10;1.45;;;18.70;38.80;;;;;;6128967;23;20380;-81
2022/04/17 12:03:34;;;;;;;3.20;1.55;;;19.10;36.10;;;;;;6125018;23;20403;-78
2022/04/17 12:06:03;;;;;;;3.87;1.87;;;19.20;36.10;;;;;;6153498;23;20376;-79
2022/04/17 12:08:34;;;;;;;5.28;1.60;;;19.20;36.80;;;;;;6126296;23;20391;-78
2022/04/17 12:11:06;;;;;;;4.80;1.80;;;18.90;37.00;;;;;;6124647;23;20442;-79
2022/04/17 12:13:33;;;;;;;3.72;1.33;;;18.70;37.80;;;;;;6122787;23;20383;-79
2022/04/17 12:16:02;;;;;;;3.45;1.80;;;19.00;37.10;;;;;;6123435;23;20378;-80
2022/04/17 12:18:29;;;;;;;3.88;1.67;;;18.60;37.30;;;;;;6126363;23;20407;-78
2022/04/17 12:21:06;;;;;;;3.22;1.60;;;18.00;36.80;;;;;;6117779;23;20385;-79
2022/04/17 12:23:34;;;;;;;4.47;1.55;;;18.00;37.40;;;;;;6114883;23;20379;-80
2022/04/17 12:26:07;;;;;;;3.78;1.42;;;18.50;38.70;;;;;;6124761;23;20391;-79
2022/04/17 12:28:40;;;;;;;3.90;1.20;;;19.20;36.90;;;;;;6124164;23;20388;-78
2022/04/17 12:31:07;;;;;;;3.17;1.50;;;19.20;37.10;;;;;;6115496;23;20450;-80
2022/04/17 12:33:34;;;;;;;2.73;1.73;;;18.90;37.10;;;;;;6102267;23;20380;-80
2022/04/17 12:36:03;;;;;;;2.88;1.45;;;19.10;37.50;;;;;;6128803;23;20380;-79
2022/04/17 12:38:30;;;;;;;4.22;1.35;;;18.90;37.20;;;;;;6126465;23;20435;-79
2022/04/17 12:40:57;;;;;;;4.97;1.80;;;19.60;36.30;;;;;;6127016;23;20388;-78
2022/04/17 12:43:29;;;;;;;3.55;1.58;;;19.20;34.90;;;;;;6126674;23;20434;-77
2022/04/17 12:46:03;;;;;;;5.53;1.60;;;18.70;36.50;;;;;;6127301;23;20387;-79
2022/04/17 12:48:34;;;;;;;3.27;1.60;;;19.10;36.20;;;;;;6125914;23;20388;-79
2022/04/17 12:51:09;;;;;;;3.38;1.42;;;19.50;35.60;;;;;;6125385;23;20425;-79
2022/04/17 12:53:41;;;;;;;3.78;1.40;;;19.90;36.10;;;;;;6126780;23;20749;-80
2022/04/17 12:56:10;;;;;;;3.55;1.65;;;19.50;35.00;;;;;;6125360;23;20372;-79
2022/04/17 12:58:57;;;;;;;2.80;1.30;;;19.60;35.40;;;;;;6118721;23;20390;-80
2022/04/17 13:01:29;;;;;;;4.25;1.60;;;19.80;36.20;;;;;;6060675;23;20375;-77
2022/04/17 13:04:19;;;;;;;6.50;1.70;;;19.20;38.40;;;;;;6068554;23;20435;-81
2022/04/17 13:07:06;;;;;;;4.97;1.83;;;19.10;36.00;;;;;;6072085;23;20531;-77
2022/04/17 13:09:33;;;;;;;4.53;1.27;;;19.10;35.40;;;;;;6072119;23;20452;-78
2022/04/17 13:12:00;;;;;;;3.87;1.30;;;19.70;36.40;;;;;;6076345;23;20439;-79
2022/04/17 13:14:26;;;;;;;3.53;1.23;;;19.60;35.80;;;;;;6072339;23;20422;-76
2022/04/17 13:16:58;;;;;;;4.53;1.30;;;20.00;35.70;;;;;;6097170;23;20375;-79
2022/04/17 13:19:30;;;;;;;2.92;1.20;;;20.50;36.30;;;;;;6067089;23;20453;-79